createdAt,value
2023-05-16T00:00:52.593Z,0.98
2023-05-16T00:01:52.706Z,0.98
2023-05-16T00:02:52.818Z,0.98
2023-05-16T00:03:52.735Z,0.95
2023-05-16T00:04:52.714Z,0.96
2023-05-16T00:05:52.768Z,0.97
2023-05-16T00:06:52.798Z,0.98
2023-05-16T00:07:52.845Z,0.97
2023-05-16T00:08:52.878Z,0.94
2023-05-16T00:09:53.733Z,0.96
2023-05-16T00:10:52.946Z,0.96
2023-05-16T00:11:52.975Z,0.94
2023-05-16T00:12:53.033Z,0.96
2023-05-16T00:13:53.058Z,0.97
2023-05-16T00:14:53.115Z,0.96
2023-05-16T00:15:53.146Z,0.94
2023-05-16T00:16:53.199Z,0.95
2023-05-16T00:17:53.239Z,0.93
2023-05-16T00:18:53.254Z,0.95
2023-05-16T00:19:53.286Z,0.94
2023-05-16T00:20:53.313Z,0.95
2023-05-16T00:21:53.350Z,0.95
2023-05-16T00:22:53.380Z,0.93
2023-05-16T00:23:53.421Z,0.94
2023-05-16T00:24:53.451Z,0.95
2023-05-16T00:25:53.497Z,0.94
2023-05-16T00:26:53.530Z,0.92
2023-05-16T00:27:53.565Z,0.92
2023-05-16T00:28:53.602Z,0.93
2023-05-16T00:29:53.628Z,0.95
2023-05-16T00:30:53.672Z,0.93
2023-05-16T00:31:53.757Z,0.93
2023-05-16T00:32:53.815Z,0.93
2023-05-16T00:33:53.772Z,0.92
2023-05-16T00:34:53.801Z,0.89
2023-05-16T00:35:53.850Z,0.90
2023-05-16T00:36:53.865Z,0.92
2023-05-16T00:37:53.896Z,0.92
2023-05-16T00:38:53.938Z,0.93
2023-05-16T00:39:53.973Z,0.90
2023-05-16T00:40:54.028Z,0.90
2023-05-16T00:41:54.055Z,0.91
2023-05-16T00:42:54.085Z,0.91
2023-05-16T00:43:54.104Z,0.92
2023-05-16T00:44:54.139Z,0.92
2023-05-16T00:45:54.297Z,0.90
2023-05-16T00:46:54.209Z,0.90
2023-05-16T00:47:54.285Z,0.91
2023-05-16T00:48:54.277Z,0.91
2023-05-16T00:49:54.287Z,0.89
2023-05-16T00:50:54.328Z,0.91
2023-05-16T00:51:54.359Z,0.89
2023-05-16T00:52:54.392Z,0.91
2023-05-16T00:53:54.426Z,0.89
2023-05-16T00:54:54.452Z,0.91
2023-05-16T00:55:54.498Z,0.91
2023-05-16T00:56:54.523Z,0.89
2023-05-16T00:57:54.560Z,0.89
2023-05-16T00:58:54.592Z,0.88
2023-05-16T00:59:54.627Z,0.87
2023-05-16T01:00:54.671Z,0.90
2023-05-16T01:01:54.789Z,0.89
2023-05-16T01:02:54.777Z,0.88
2023-05-16T01:03:54.859Z,0.91
2023-05-16T01:04:54.788Z,0.91
2023-05-16T01:05:54.845Z,0.88
2023-05-16T01:06:54.858Z,0.89
2023-05-16T01:07:54.901Z,0.89
2023-05-16T01:08:54.928Z,0.88
2023-05-16T01:09:54.985Z,0.87
2023-05-16T01:10:55.014Z,0.87
2023-05-16T01:11:55.063Z,0.88
2023-05-16T01:12:55.068Z,0.88
2023-05-16T01:13:55.115Z,0.88
2023-05-16T01:14:55.134Z,0.85
2023-05-16T01:15:55.301Z,0.88
2023-05-16T01:16:55.218Z,0.86
2023-05-16T01:17:55.297Z,0.88
2023-05-16T01:18:55.352Z,0.86
2023-05-16T01:19:55.332Z,0.88
2023-05-16T01:20:55.359Z,0.87
2023-05-16T01:21:55.416Z,0.87
2023-05-16T01:22:55.429Z,0.86
2023-05-16T01:23:55.472Z,0.87
2023-05-16T01:24:55.502Z,0.84
2023-05-16T01:25:55.542Z,0.86
2023-05-16T01:26:55.580Z,0.86
2023-05-16T01:27:55.619Z,0.84
2023-05-16T01:28:55.690Z,0.87
2023-05-16T01:29:55.689Z,0.86
2023-05-16T01:30:55.738Z,0.85
2023-05-16T01:31:55.786Z,0.85
2023-05-16T01:32:55.903Z,0.87
2023-05-16T01:33:55.838Z,0.84
2023-05-16T01:34:55.865Z,0.86
2023-05-16T01:35:55.911Z,0.84
2023-05-16T01:36:55.951Z,0.86
2023-05-16T01:37:55.983Z,0.86
2023-05-16T01:38:56.041Z,0.84
2023-05-16T01:39:56.059Z,0.84
2023-05-16T01:40:56.103Z,0.84
2023-05-16T01:41:56.136Z,0.85
2023-05-16T01:42:56.172Z,0.85
2023-05-16T01:43:56.204Z,0.84
2023-05-16T01:44:56.248Z,0.85
2023-05-16T01:45:56.423Z,0.84
2023-05-16T01:46:56.341Z,0.84
2023-05-16T01:47:56.409Z,0.85
2023-05-16T01:48:56.402Z,0.85
2023-05-16T01:49:56.428Z,0.81
2023-05-16T01:50:56.473Z,0.83
2023-05-16T01:51:56.504Z,0.83
2023-05-16T01:52:56.546Z,0.83
2023-05-16T01:53:56.580Z,0.83
2023-05-16T01:54:56.624Z,0.83
2023-05-16T01:55:56.674Z,0.82
2023-05-16T01:56:56.711Z,0.84
2023-05-16T01:57:56.747Z,0.83
2023-05-16T01:58:56.788Z,0.84
2023-05-16T01:59:56.802Z,0.83
2023-05-16T02:00:56.873Z,0.82
2023-05-16T02:01:56.889Z,0.82
2023-05-16T02:02:56.934Z,0.83
2023-05-16T02:03:57.001Z,0.84
2023-05-16T02:04:56.979Z,0.82
2023-05-16T02:05:57.029Z,0.83
2023-05-16T02:06:57.057Z,0.83
2023-05-16T02:07:57.087Z,0.81
2023-05-16T02:08:57.113Z,0.81
2023-05-16T02:09:57.154Z,0.82
2023-05-16T02:10:57.191Z,0.82
2023-05-16T02:11:57.223Z,0.82
2023-05-16T02:12:57.255Z,0.82
2023-05-16T02:13:57.303Z,0.82
2023-05-16T02:14:57.334Z,0.82
2023-05-16T02:15:57.363Z,0.80
2023-05-16T02:16:57.445Z,0.83
2023-05-16T02:17:57.491Z,0.81
2023-05-16T02:18:57.506Z,0.81
2023-05-16T02:19:57.524Z,0.81
2023-05-16T02:20:57.552Z,0.79
2023-05-16T02:21:57.568Z,0.80
2023-05-16T02:22:57.605Z,0.79
2023-05-16T02:23:57.638Z,0.81
2023-05-16T02:24:57.670Z,0.82
2023-05-16T02:25:57.697Z,0.80
2023-05-16T02:26:57.745Z,0.81
2023-05-16T02:27:57.767Z,0.82
2023-05-16T02:28:57.800Z,0.79
2023-05-16T02:29:57.839Z,0.80
2023-05-16T02:30:57.893Z,0.79
2023-05-16T02:31:57.907Z,0.81
2023-05-16T02:32:58.062Z,0.81
2023-05-16T02:33:57.962Z,0.79
2023-05-16T02:34:57.992Z,0.81
2023-05-16T02:35:58.014Z,0.80
2023-05-16T02:36:58.059Z,0.79
2023-05-16T02:37:58.083Z,0.81
2023-05-16T02:38:58.113Z,0.80
2023-05-16T02:39:58.148Z,0.79
2023-05-16T02:40:58.199Z,0.77
2023-05-16T02:41:58.210Z,0.78
2023-05-16T02:42:58.236Z,0.78
2023-05-16T02:43:58.269Z,0.78
2023-05-16T02:44:58.306Z,0.79
2023-05-16T02:45:58.466Z,0.79
2023-05-16T02:46:58.400Z,0.80
2023-05-16T02:47:58.441Z,0.80
2023-05-16T02:48:58.419Z,0.79
2023-05-16T02:49:58.452Z,0.78
2023-05-16T02:50:58.489Z,0.78
2023-05-16T02:51:58.539Z,0.78
2023-05-16T02:52:58.566Z,0.80
2023-05-16T02:53:58.607Z,0.78
2023-05-16T02:55:10.028Z,0.79
2023-05-16T02:55:59.649Z,0.79
2023-05-16T02:56:58.643Z,0.79
2023-05-16T02:57:58.637Z,0.79
2023-05-16T02:58:58.651Z,0.78
2023-05-16T02:59:58.656Z,0.79
2023-05-16T03:00:58.646Z,0.80
2023-05-16T03:01:58.748Z,0.77
2023-05-16T03:02:58.693Z,0.79
2023-05-16T03:03:58.782Z,0.78
2023-05-16T03:04:58.628Z,0.78
2023-05-16T03:05:58.622Z,0.77
2023-05-16T03:06:58.624Z,0.76
2023-05-16T03:07:58.610Z,0.77
2023-05-16T03:08:58.611Z,0.77
2023-05-16T03:09:58.607Z,0.76
2023-05-16T03:10:58.632Z,0.77
2023-05-16T03:11:58.661Z,0.78
2023-05-16T03:12:58.696Z,0.78
2023-05-16T03:14:01.388Z,0.77
2023-05-16T03:14:58.736Z,0.80
2023-05-16T03:15:58.751Z,0.77
2023-05-16T03:16:58.728Z,0.79
2023-05-16T03:17:58.781Z,0.77
2023-05-16T03:18:58.749Z,0.75
2023-05-16T03:19:58.715Z,0.78
2023-05-16T03:20:58.708Z,0.77
2023-05-16T03:21:58.708Z,0.78
2023-05-16T03:22:58.705Z,0.79
2023-05-16T03:23:58.746Z,0.77
2023-05-16T03:24:58.706Z,0.77
2023-05-16T03:25:58.716Z,0.77
2023-05-16T03:26:58.696Z,0.75
2023-05-16T03:27:58.705Z,0.77
2023-05-16T03:28:58.682Z,0.77
2023-05-16T03:29:58.680Z,0.77
2023-05-16T03:30:58.683Z,0.77
2023-05-16T03:31:58.696Z,0.79
2023-05-16T03:32:58.707Z,0.77
2023-05-16T03:33:58.657Z,0.78
2023-05-16T03:34:58.656Z,0.77
2023-05-16T03:35:58.646Z,0.77
2023-05-16T03:36:58.642Z,0.75
2023-05-16T03:37:58.636Z,0.76
2023-05-16T03:38:58.623Z,0.78
2023-05-16T03:39:58.622Z,0.77
2023-05-16T03:40:58.624Z,0.76
2023-05-16T03:41:58.616Z,0.78
2023-05-16T03:42:58.606Z,0.77
2023-05-16T03:43:58.604Z,0.77
2023-05-16T03:44:58.605Z,0.75
2023-05-16T03:45:58.614Z,0.76
2023-05-16T03:46:58.583Z,0.75
2023-05-16T03:47:58.626Z,0.75
2023-05-16T03:48:58.592Z,0.75
2023-05-16T03:49:58.575Z,0.76
2023-05-16T03:50:58.580Z,0.74
2023-05-16T03:51:58.582Z,0.75
2023-05-16T03:52:58.569Z,0.75
2023-05-16T03:53:58.561Z,0.77
2023-05-16T03:54:59.349Z,0.76
2023-05-16T03:55:58.561Z,0.75
2023-05-16T03:56:58.536Z,0.75
2023-05-16T03:57:58.542Z,0.75
2023-05-16T03:58:59.337Z,0.74
2023-05-16T03:59:58.531Z,0.74
2023-05-16T04:00:58.530Z,0.75
2023-05-16T04:01:58.580Z,0.73
2023-05-16T04:02:58.600Z,0.74
2023-05-16T04:03:58.519Z,0.74
2023-05-16T04:04:58.525Z,0.75
2023-05-16T04:05:58.532Z,0.74
2023-05-16T04:06:58.517Z,0.75
2023-05-16T04:07:58.513Z,0.75
2023-05-16T04:08:58.530Z,0.75
2023-05-16T04:09:58.518Z,0.74
2023-05-16T04:10:58.522Z,0.74
2023-05-16T04:11:58.501Z,0.73
2023-05-16T04:12:58.620Z,0.74
2023-05-16T04:13:58.626Z,0.74
2023-05-16T04:14:58.638Z,0.74
2023-05-16T04:15:58.724Z,0.72
2023-05-16T04:16:58.749Z,0.74
2023-05-16T04:17:58.756Z,0.74
2023-05-16T04:18:58.805Z,0.73
2023-05-16T04:19:58.824Z,0.74
2023-05-16T04:20:58.853Z,0.73
2023-05-16T04:21:59.845Z,0.73
2023-05-16T04:22:58.920Z,0.72
2023-05-16T04:23:58.967Z,0.72
2023-05-16T04:24:58.995Z,0.75
2023-05-16T04:25:59.035Z,0.72
2023-05-16T04:26:59.074Z,0.73
2023-05-16T04:27:59.120Z,0.75
2023-05-16T04:29:00.307Z,0.72
2023-05-16T04:29:59.255Z,0.73
2023-05-16T04:30:59.294Z,0.72
2023-05-16T04:31:59.340Z,0.73
2023-05-16T04:32:59.386Z,0.73
2023-05-16T04:33:59.332Z,0.74
2023-05-16T04:34:59.364Z,0.73
2023-05-16T04:35:59.406Z,0.72
2023-05-16T04:36:59.446Z,0.73
2023-05-16T04:37:59.484Z,0.74
2023-05-16T04:38:59.526Z,0.73
2023-05-16T04:39:59.554Z,0.72
2023-05-16T04:40:59.586Z,0.73
2023-05-16T04:41:59.629Z,0.71
2023-05-16T04:42:59.666Z,0.72
2023-05-16T04:43:59.697Z,0.71
2023-05-16T04:44:59.736Z,0.73
2023-05-16T04:45:59.807Z,0.71
2023-05-16T04:46:59.819Z,0.72
2023-05-16T04:47:59.923Z,0.71
2023-05-16T04:48:59.895Z,0.72
2023-05-16T04:49:59.943Z,0.72
2023-05-16T04:50:59.973Z,0.71
2023-05-16T04:52:00.012Z,0.73
2023-05-16T04:53:00.060Z,0.72
2023-05-16T04:54:00.111Z,0.71
2023-05-16T04:55:00.172Z,0.72
2023-05-16T04:56:00.180Z,0.71
2023-05-16T04:57:00.213Z,0.71
2023-05-16T04:58:00.255Z,0.70
2023-05-16T04:59:00.307Z,0.71
2023-05-16T05:00:00.330Z,0.72
2023-05-16T05:01:01.785Z,0.72
2023-05-16T05:02:00.509Z,0.71
2023-05-16T05:03:00.550Z,0.71
2023-05-16T05:04:00.485Z,0.73
2023-05-16T05:05:00.577Z,0.76
2023-05-16T05:06:00.559Z,0.77
2023-05-16T05:07:00.579Z,0.77
2023-05-16T05:08:00.608Z,0.79
2023-05-16T05:09:00.669Z,0.82
2023-05-16T05:10:00.676Z,0.83
2023-05-16T05:11:00.862Z,0.85
2023-05-16T05:12:00.753Z,0.87
2023-05-16T05:13:00.792Z,0.86
2023-05-16T05:14:00.849Z,0.89
2023-05-16T05:15:00.924Z,0.90
2023-05-16T05:16:00.961Z,0.93
2023-05-16T05:17:01.041Z,0.96
2023-05-16T05:18:02.054Z,0.92
2023-05-16T05:19:01.140Z,0.92
2023-05-16T05:20:03.197Z,0.95
2023-05-16T05:21:01.198Z,0.96
2023-05-16T05:22:01.879Z,0.98
2023-05-16T05:23:01.340Z,0.99
2023-05-16T05:24:02.332Z,0.99
2023-05-16T05:25:02.313Z,0.99
2023-05-16T05:26:02.918Z,0.96
2023-05-16T05:27:01.342Z,0.99
2023-05-16T05:28:01.362Z,0.85
2023-05-16T05:29:05.899Z,0.69
2023-05-16T05:30:02.417Z,0.65
2023-05-16T05:31:01.434Z,0.58
2023-05-16T05:32:01.605Z,0.52
2023-05-16T05:33:01.596Z,0.46
2023-05-16T05:34:01.542Z,0.44
2023-05-16T05:35:01.615Z,0.50
2023-05-16T05:36:04.017Z,0.53
2023-05-16T05:37:02.901Z,0.54
2023-05-16T05:38:01.924Z,0.58
2023-05-16T05:39:01.961Z,0.61
2023-05-16T05:40:01.974Z,0.60
2023-05-16T05:41:02.051Z,0.64
2023-05-16T05:42:02.121Z,0.69
2023-05-16T05:43:02.173Z,0.77
2023-05-16T05:44:02.231Z,0.80
2023-05-16T05:45:02.285Z,0.83
2023-05-16T05:46:02.386Z,0.86
2023-05-16T05:47:02.347Z,0.86
2023-05-16T05:48:02.311Z,0.87
2023-05-16T05:49:02.297Z,0.87
2023-05-16T05:50:02.306Z,0.90
2023-05-16T05:51:02.285Z,0.93
2023-05-16T05:52:02.279Z,0.92
2023-05-16T05:53:02.272Z,0.94
2023-05-16T05:54:02.275Z,0.93
2023-05-16T05:55:02.273Z,0.96
2023-05-16T05:56:02.262Z,0.95
2023-05-16T05:57:02.258Z,0.93
2023-05-16T05:59:02.277Z,0.96
2023-05-16T06:00:02.304Z,0.91
2023-05-16T06:01:02.357Z,0.91
2023-05-16T06:02:02.415Z,1.02
2023-05-16T06:03:02.484Z,1.07
2023-05-16T06:04:02.481Z,1.08
2023-05-16T06:05:02.524Z,1.08
2023-05-16T06:06:02.599Z,1.08
2023-05-16T06:07:02.525Z,1.08
2023-05-16T06:08:02.518Z,1.08
2023-05-16T06:09:02.501Z,1.08
2023-05-16T06:10:04.691Z,1.07
2023-05-16T06:11:02.586Z,1.11
2023-05-16T06:12:02.612Z,1.12
2023-05-16T06:13:02.648Z,1.08
2023-05-16T06:14:02.701Z,1.14
2023-05-16T06:15:02.726Z,1.13
2023-05-16T06:16:02.762Z,1.12
2023-05-16T06:17:02.853Z,1.13
2023-05-16T06:18:02.925Z,1.15
2023-05-16T06:19:02.916Z,1.14
2023-05-16T06:20:02.919Z,1.17
2023-05-16T06:21:03.831Z,1.19
2023-05-16T06:22:02.987Z,1.18
2023-05-16T06:23:03.032Z,1.18
2023-05-16T06:24:03.063Z,1.18
2023-05-16T06:25:03.099Z,1.21
2023-05-16T06:26:03.164Z,1.22
2023-05-16T06:27:03.202Z,1.16
2023-05-16T06:28:03.341Z,1.05
2023-05-16T06:29:03.300Z,1.06
2023-05-16T06:30:03.335Z,1.10
2023-05-16T06:31:03.912Z,1.10
2023-05-16T06:32:03.540Z,1.05
2023-05-16T06:33:03.564Z,0.98
2023-05-16T06:34:03.598Z,0.93
2023-05-16T06:35:03.623Z,0.89
2023-05-16T06:36:03.642Z,0.86
2023-05-16T06:37:03.672Z,0.86
2023-05-16T06:38:03.681Z,0.88
2023-05-16T06:39:03.677Z,0.87
2023-05-16T06:40:03.674Z,0.88
2023-05-16T06:41:03.671Z,0.90
2023-05-16T06:42:03.682Z,0.94
2023-05-16T06:43:03.632Z,0.88
2023-05-16T06:44:03.620Z,0.90
2023-05-16T06:45:03.608Z,0.93
2023-05-16T06:46:03.630Z,0.99
2023-05-16T06:47:03.693Z,1.10
2023-05-16T06:48:03.644Z,1.17
2023-05-16T06:49:03.556Z,1.15
2023-05-16T06:50:03.556Z,1.15
2023-05-16T06:51:03.559Z,1.16
2023-05-16T06:52:03.602Z,1.19
2023-05-16T06:53:03.627Z,1.17
2023-05-16T06:54:04.264Z,1.20
2023-05-16T06:55:03.697Z,1.20
2023-05-16T06:56:03.748Z,1.18
2023-05-16T06:57:03.797Z,1.18
2023-05-16T06:58:03.842Z,1.18
2023-05-16T06:59:03.892Z,1.19
2023-05-16T07:00:04.926Z,1.19
2023-05-16T07:01:04.030Z,1.18
2023-05-16T07:02:04.049Z,1.20
2023-05-16T07:03:04.214Z,1.21
2023-05-16T07:04:04.324Z,1.18
2023-05-16T07:05:04.197Z,1.21
2023-05-16T07:06:04.235Z,1.19
2023-05-16T07:07:04.281Z,1.19
2023-05-16T07:08:07.060Z,1.17
2023-05-16T07:09:04.311Z,1.24
2023-05-16T07:10:04.340Z,1.19
2023-05-16T07:11:04.316Z,1.23
2023-05-16T07:12:04.305Z,1.24
2023-05-16T07:13:04.307Z,1.26
2023-05-16T07:14:04.331Z,1.26
2023-05-16T07:15:04.926Z,1.27
2023-05-16T07:16:04.346Z,1.28
2023-05-16T07:17:04.387Z,1.30
2023-05-16T07:18:04.387Z,1.30
2023-05-16T07:19:04.403Z,1.30
2023-05-16T07:20:05.494Z,1.32
2023-05-16T07:21:04.359Z,1.31
2023-05-16T07:22:04.364Z,1.36
2023-05-16T07:23:04.375Z,1.34
2023-05-16T07:24:04.353Z,1.45
2023-05-16T07:25:04.354Z,1.59
2023-05-16T07:26:04.354Z,1.56
2023-05-16T07:27:04.352Z,1.57
2023-05-16T07:28:04.344Z,1.60
2023-05-16T07:29:04.335Z,1.59
2023-05-16T07:30:04.330Z,1.59
2023-05-16T07:31:04.319Z,1.64
2023-05-16T07:32:04.408Z,1.60
2023-05-16T07:33:04.355Z,1.65
2023-05-16T07:34:04.296Z,1.69
2023-05-16T07:35:04.273Z,1.67
2023-05-16T07:36:16.226Z,1.72
2023-05-16T07:37:06.412Z,1.72
2023-05-16T07:38:04.234Z,1.73
2023-05-16T07:39:04.236Z,1.76
2023-05-16T07:40:05.219Z,1.72
2023-05-16T07:41:04.210Z,1.74
2023-05-16T07:42:04.182Z,1.75
2023-05-16T07:43:04.184Z,1.80
2023-05-16T07:44:04.179Z,1.85
2023-05-16T07:45:04.168Z,1.84
2023-05-16T07:46:04.261Z,1.91
2023-05-16T07:47:04.159Z,1.96
2023-05-16T07:48:04.250Z,1.97
2023-05-16T07:49:04.149Z,2.01
2023-05-16T07:50:04.212Z,2.07
2023-05-16T07:51:04.126Z,2.00
2023-05-16T07:52:04.189Z,1.98
2023-05-16T07:53:04.227Z,2.01
2023-05-16T07:54:04.233Z,2.03
2023-05-16T07:55:04.320Z,1.98
2023-05-16T07:56:04.315Z,1.97
2023-05-16T07:57:04.352Z,2.05
2023-05-16T07:58:04.445Z,2.07
2023-05-16T07:59:04.460Z,2.05
2023-05-16T08:00:04.432Z,2.05
2023-05-16T08:01:04.541Z,2.05
2023-05-16T08:02:04.600Z,2.06
2023-05-16T08:03:04.739Z,2.10
2023-05-16T08:04:04.641Z,2.11
2023-05-16T08:05:04.649Z,1.98
2023-05-16T08:06:04.927Z,2.02
2023-05-16T08:07:04.689Z,2.07
2023-05-16T08:08:04.746Z,2.09
2023-05-16T08:09:04.757Z,2.06
2023-05-16T08:10:04.797Z,1.96
2023-05-16T08:11:04.851Z,2.03
2023-05-16T08:12:04.910Z,1.99
2023-05-16T08:13:04.944Z,2.00
2023-05-16T08:14:04.998Z,2.04
2023-05-16T08:15:05.025Z,1.99
2023-05-16T08:16:05.142Z,1.98
2023-05-16T08:17:05.157Z,1.98
2023-05-16T08:18:05.255Z,1.97
2023-05-16T08:19:05.316Z,1.97
2023-05-16T08:20:05.333Z,1.95
2023-05-16T08:21:05.397Z,1.94
2023-05-16T08:22:05.444Z,1.94
2023-05-16T08:23:05.502Z,2.00
2023-05-16T08:24:05.597Z,2.00
2023-05-16T08:25:05.615Z,1.98
2023-05-16T08:26:05.659Z,1.94
2023-05-16T08:27:05.720Z,1.96
2023-05-16T08:28:05.786Z,1.95
2023-05-16T08:29:05.823Z,1.90
2023-05-16T08:30:05.876Z,1.94
2023-05-16T08:31:05.947Z,1.91
2023-05-16T08:32:06.472Z,1.94
2023-05-16T08:33:06.002Z,1.96
2023-05-16T08:34:06.018Z,1.99
2023-05-16T08:35:06.049Z,1.98
2023-05-16T08:36:06.089Z,2.00
2023-05-16T08:37:06.127Z,2.02
2023-05-16T08:38:06.157Z,1.99
2023-05-16T08:39:06.208Z,2.02
2023-05-16T08:40:06.238Z,2.01
2023-05-16T08:41:06.973Z,2.01
2023-05-16T08:42:06.318Z,1.99
2023-05-16T08:43:06.344Z,1.96
2023-05-16T08:44:06.373Z,1.98
2023-05-16T08:45:06.400Z,2.00
2023-05-16T08:46:06.442Z,2.00
2023-05-16T08:47:06.526Z,1.99
2023-05-16T08:48:08.674Z,2.01
2023-05-16T08:49:07.477Z,2.09
2023-05-16T08:50:06.471Z,2.09
2023-05-16T08:51:06.482Z,2.04
2023-05-16T08:52:06.474Z,2.02
2023-05-16T08:53:06.466Z,2.02
2023-05-16T08:54:06.463Z,1.99
2023-05-16T08:55:25.153Z,2.00
2023-05-16T08:56:07.468Z,2.01
2023-05-16T08:57:06.431Z,2.01
2023-05-16T08:58:06.414Z,2.01
2023-05-16T08:59:06.408Z,2.00
2023-05-16T09:00:06.397Z,1.96
2023-05-16T09:01:06.408Z,2.04
2023-05-16T09:02:06.359Z,2.03
2023-05-16T09:03:06.378Z,2.02
2023-05-16T09:04:06.402Z,2.01
2023-05-16T09:05:06.352Z,1.96
2023-05-16T09:06:08.062Z,2.01
2023-05-16T09:07:06.308Z,1.98
2023-05-16T09:08:06.305Z,1.97
2023-05-16T09:09:06.293Z,1.97
2023-05-16T09:10:06.310Z,1.96
2023-05-16T09:11:06.290Z,1.97
2023-05-16T09:12:06.315Z,1.94
2023-05-16T09:13:06.334Z,1.95
2023-05-16T09:14:06.382Z,1.91
2023-05-16T09:15:06.391Z,1.92
2023-05-16T09:16:06.433Z,1.87
2023-05-16T09:17:06.533Z,1.96
2023-05-16T09:18:06.570Z,1.95
2023-05-16T09:19:06.641Z,1.96
2023-05-16T09:20:06.634Z,1.97
2023-05-16T09:21:06.663Z,2.04
2023-05-16T09:22:06.720Z,2.03
2023-05-16T09:23:06.776Z,2.04
2023-05-16T09:24:06.826Z,2.01
2023-05-16T09:25:08.636Z,2.07
2023-05-16T09:26:07.890Z,2.07
2023-05-16T09:27:06.888Z,2.06
2023-05-16T09:28:06.884Z,1.28
2023-05-16T09:29:06.894Z,0.78
2023-05-16T09:30:07.431Z,0.52
2023-05-16T09:31:07.089Z,0.46
2023-05-16T09:32:06.979Z,0.46
2023-05-16T09:33:07.049Z,0.47
2023-05-16T09:34:07.055Z,0.52
2023-05-16T09:35:07.074Z,0.52
2023-05-16T09:36:07.098Z,0.58
2023-05-16T09:37:07.108Z,0.60
2023-05-16T09:38:07.103Z,0.66
2023-05-16T09:39:07.932Z,0.77
2023-05-16T09:40:07.219Z,0.94
2023-05-16T09:41:07.293Z,1.07
2023-05-16T09:42:07.313Z,1.17
2023-05-16T09:43:07.389Z,1.23
2023-05-16T09:44:07.378Z,1.28
2023-05-16T09:45:07.408Z,1.33
2023-05-16T09:46:07.503Z,1.40
2023-05-16T09:47:07.493Z,1.48
2023-05-16T09:48:07.578Z,1.61
2023-05-16T09:49:07.537Z,1.71
2023-05-16T09:50:07.571Z,1.77
2023-05-16T09:51:07.616Z,1.79
2023-05-16T09:52:07.748Z,1.83
2023-05-16T09:53:07.663Z,1.88
2023-05-16T09:54:08.506Z,1.92
2023-05-16T09:55:07.745Z,1.95
2023-05-16T09:56:07.795Z,2.04
2023-05-16T09:57:07.807Z,2.07
2023-05-16T09:58:07.848Z,2.14
2023-05-16T09:59:07.888Z,2.19
2023-05-16T10:00:07.913Z,2.21
2023-05-16T10:01:07.946Z,2.23
2023-05-16T10:02:08.080Z,2.28
2023-05-16T10:03:08.100Z,2.35
2023-05-16T10:04:08.124Z,2.34
2023-05-16T10:05:08.523Z,2.42
2023-05-16T10:06:08.118Z,2.43
2023-05-16T10:07:08.126Z,2.42
2023-05-16T10:08:08.174Z,2.46
2023-05-16T10:09:08.209Z,2.53
2023-05-16T10:10:08.262Z,2.51
2023-05-16T10:11:08.309Z,2.42
2023-05-16T10:12:08.333Z,2.53
2023-05-16T10:13:08.395Z,2.35
2023-05-16T10:14:08.399Z,2.41
2023-05-16T10:15:08.437Z,2.49
2023-05-16T10:16:08.655Z,2.62
2023-05-16T10:17:08.493Z,2.68
2023-05-16T10:18:09.556Z,2.91
2023-05-16T10:19:08.635Z,2.91
2023-05-16T10:20:08.669Z,2.89
2023-05-16T10:21:11.190Z,2.87
2023-05-16T10:22:08.721Z,2.99
2023-05-16T10:23:08.785Z,3.07
2023-05-16T10:24:08.727Z,3.02
2023-05-16T10:25:08.701Z,3.14
2023-05-16T10:26:08.785Z,3.18
2023-05-16T10:27:08.700Z,3.13
2023-05-16T10:28:09.514Z,3.19
2023-05-16T10:29:08.661Z,3.29
2023-05-16T10:30:08.667Z,3.28
2023-05-16T10:31:08.663Z,3.34
2023-05-16T10:32:08.701Z,3.35
2023-05-16T10:33:08.740Z,3.35
2023-05-16T10:34:08.641Z,3.37
2023-05-16T10:35:08.629Z,3.40
2023-05-16T10:36:08.633Z,3.49
2023-05-16T10:37:08.634Z,3.49
2023-05-16T10:38:08.647Z,3.55
2023-05-16T10:39:08.625Z,3.56
2023-05-16T10:40:08.640Z,3.59
2023-05-16T10:41:08.697Z,3.66
2023-05-16T10:42:08.612Z,3.69
2023-05-16T10:43:08.632Z,3.76
2023-05-16T10:44:08.604Z,3.81
2023-05-16T10:45:08.605Z,3.81
2023-05-16T10:46:08.650Z,3.88
2023-05-16T10:47:08.595Z,4.07
2023-05-16T10:48:08.760Z,4.18
2023-05-16T10:49:08.577Z,4.39
2023-05-16T10:50:08.570Z,4.24
2023-05-16T10:51:08.568Z,4.27
2023-05-16T10:52:08.604Z,4.37
2023-05-16T10:53:08.563Z,4.37
2023-05-16T10:54:08.564Z,4.31
2023-05-16T10:55:08.570Z,4.32
2023-05-16T10:56:08.591Z,4.29
2023-05-16T10:57:08.511Z,4.27
2023-05-16T10:58:08.495Z,4.29
2023-05-16T10:59:08.516Z,4.24
2023-05-16T11:00:09.543Z,4.24
2023-05-16T11:01:08.546Z,4.24
2023-05-16T11:02:08.545Z,4.25
2023-05-16T11:03:08.591Z,4.28
2023-05-16T11:04:08.523Z,4.20
2023-05-16T11:05:08.515Z,4.18
2023-05-16T11:06:08.540Z,4.26
2023-05-16T11:07:08.536Z,4.18
2023-05-16T11:08:08.533Z,4.03
2023-05-16T11:09:08.553Z,4.03
2023-05-16T11:10:08.604Z,4.05
2023-05-16T11:11:09.540Z,4.05
2023-05-16T11:12:08.558Z,4.00
2023-05-16T11:13:08.556Z,3.75
2023-05-16T11:14:08.558Z,3.81
2023-05-16T11:15:08.548Z,3.77
2023-05-16T11:16:08.549Z,4.00
2023-05-16T11:17:08.580Z,4.20
2023-05-16T11:18:08.608Z,4.45
2023-05-16T11:19:08.633Z,4.30
2023-05-16T11:20:08.645Z,4.47
2023-05-16T11:21:08.686Z,4.32
2023-05-16T11:22:08.728Z,4.49
2023-05-16T11:23:08.759Z,4.44
2023-05-16T11:24:08.820Z,4.38
2023-05-16T11:25:08.877Z,4.47
2023-05-16T11:26:08.882Z,4.48
2023-05-16T11:27:08.925Z,4.29
2023-05-16T11:28:08.981Z,4.37
2023-05-16T11:29:09.018Z,4.40
2023-05-16T11:30:09.049Z,4.35
2023-05-16T11:31:09.175Z,4.46
2023-05-16T11:32:09.128Z,4.38
2023-05-16T11:33:09.213Z,4.28
2023-05-16T11:34:09.230Z,4.37
2023-05-16T11:35:09.602Z,4.40
2023-05-16T11:37:09.339Z,4.28
2023-05-16T11:38:09.323Z,4.44
2023-05-16T11:39:09.321Z,4.35
2023-05-16T11:40:09.318Z,4.36
2023-05-16T11:41:09.317Z,4.40
2023-05-16T11:42:09.316Z,4.51
2023-05-16T11:43:09.309Z,4.53
2023-05-16T11:44:09.326Z,4.55
2023-05-16T11:45:09.298Z,4.47
2023-05-16T11:46:09.311Z,4.54
2023-05-16T11:47:09.431Z,4.38
2023-05-16T11:48:09.316Z,4.41
2023-05-16T11:49:09.300Z,4.47
2023-05-16T11:50:09.290Z,4.64
2023-05-16T11:51:09.313Z,4.68
2023-05-16T11:52:09.283Z,4.63
2023-05-16T11:53:09.276Z,4.71
2023-05-16T11:54:09.278Z,4.94
2023-05-16T11:55:09.274Z,4.94
2023-05-16T11:56:09.257Z,4.97
2023-05-16T11:57:09.253Z,4.87
2023-05-16T11:58:09.484Z,4.81
2023-05-16T11:59:09.235Z,4.49
2023-05-16T12:00:09.274Z,4.33
2023-05-16T12:01:09.245Z,4.57
2023-05-16T12:02:09.222Z,4.68
2023-05-16T12:03:09.268Z,4.68
2023-05-16T12:04:09.401Z,5.07
2023-05-16T12:05:09.258Z,4.95
2023-05-16T12:06:09.225Z,5.14
2023-05-16T12:07:09.232Z,5.03
2023-05-16T12:08:09.225Z,4.85
2023-05-16T12:09:09.212Z,4.81
2023-05-16T12:10:09.207Z,4.54
2023-05-16T12:11:09.197Z,4.47
2023-05-16T12:12:09.191Z,4.35
2023-05-16T12:13:09.182Z,4.29
2023-05-16T12:14:09.176Z,4.26
2023-05-16T12:15:09.183Z,4.31
2023-05-16T12:16:09.317Z,4.49
2023-05-16T12:17:09.220Z,5.13
2023-05-16T12:18:09.258Z,4.92
2023-05-16T12:19:09.192Z,5.06
2023-05-16T12:20:09.160Z,4.88
2023-05-16T12:21:09.142Z,4.63
2023-05-16T12:22:09.151Z,4.48
2023-05-16T12:23:09.139Z,4.36
2023-05-16T12:24:09.135Z,4.25
2023-05-16T12:25:09.134Z,4.31
2023-05-16T12:26:09.124Z,4.21
2023-05-16T12:27:09.170Z,4.14
2023-05-16T12:28:09.223Z,4.18
2023-05-16T12:29:09.263Z,4.13
2023-05-16T12:30:09.314Z,4.11
2023-05-16T12:31:15.844Z,4.10
2023-05-16T12:32:10.425Z,4.11
2023-05-16T12:33:09.411Z,4.07
2023-05-16T12:34:09.338Z,4.13
2023-05-16T12:35:09.995Z,4.09
2023-05-16T12:36:09.328Z,4.05
2023-05-16T12:37:09.326Z,3.98
2023-05-16T12:38:09.326Z,3.85
2023-05-16T12:39:09.534Z,4.02
2023-05-16T12:40:09.322Z,3.99
2023-05-16T12:41:09.302Z,3.90
2023-05-16T12:42:09.320Z,3.98
2023-05-16T12:43:09.356Z,3.84
2023-05-16T12:44:09.399Z,3.91
2023-05-16T12:45:09.449Z,3.92
2023-05-16T12:46:09.524Z,3.92
2023-05-16T12:47:09.542Z,3.93
2023-05-16T12:48:09.616Z,3.95
2023-05-16T12:49:09.625Z,3.85
2023-05-16T12:50:09.904Z,3.81
2023-05-16T12:51:09.696Z,3.86
2023-05-16T12:52:09.745Z,3.83
2023-05-16T12:53:09.792Z,3.83
2023-05-16T12:54:10.536Z,3.83
2023-05-16T12:55:09.858Z,3.78
2023-05-16T12:56:09.904Z,3.72
2023-05-16T12:57:09.954Z,3.65
2023-05-16T12:58:10.043Z,3.69
2023-05-16T12:59:10.036Z,3.77
2023-05-16T13:00:10.167Z,3.89
2023-05-16T13:01:10.173Z,3.92
2023-05-16T13:02:10.227Z,3.84
2023-05-16T13:03:10.351Z,4.00
2023-05-16T13:04:11.140Z,4.05
2023-05-16T13:05:10.402Z,4.07
2023-05-16T13:06:10.404Z,4.04
2023-05-16T13:07:10.533Z,3.88
2023-05-16T13:08:10.492Z,3.93
2023-05-16T13:09:10.534Z,3.94
2023-05-16T13:10:10.572Z,3.88
2023-05-16T13:11:10.621Z,3.87
2023-05-16T13:12:10.605Z,3.88
2023-05-16T13:13:11.008Z,3.90
2023-05-16T13:14:10.653Z,3.92
2023-05-16T13:15:10.679Z,4.03
2023-05-16T13:16:10.649Z,4.06
2023-05-16T13:17:10.586Z,4.11
2023-05-16T13:18:10.620Z,4.07
2023-05-16T13:19:10.608Z,4.08
2023-05-16T13:20:11.228Z,4.10
2023-05-16T13:21:10.572Z,4.11